Time;durP1;ratioP1;P1;durP2;ratioP2;P2;SDS_P1;SDS_P2;PMS_P1;PMS_P2;Temp;Humidity;BMP_temperature;BMP_pressure;BME280_temperature;BME280_humidity;BME280_pressure;Samples;Min_cycle;Max_cycle;Signal;HPM_P1;HPM_P2
2022/03/02 00:05:04;;;;;;;20.87;13.80;;;3.50;60.00;;;;;;20747125;28;20236;-65
2022/03/02 00:15:06;;;;;;;27.57;13.23;;;3.50;60.10;;;;;;20747580;28;20242;-64
2022/03/02 00:25:08;;;;;;;24.37;13.50;;;3.30;60.90;;;;;;20746715;28;20201;-66
2022/03/02 00:35:10;;;;;;;22.70;13.23;;;3.40;60.90;;;;;;20746451;28;20367;-67
2022/03/02 00:45:12;;;;;;;23.97;13.63;;;3.40;61.50;;;;;;20746610;28;20267;-67
2022/03/02 00:55:14;;;;;;;26.73;13.60;;;3.50;61.10;;;;;;20744581;28;20237;-69
2022/03/02 01:05:16;;;;;;;20.40;12.30;;;3.50;61.20;;;;;;20745301;28;20254;-66
2022/03/02 01:15:18;;;;;;;18.90;11.60;;;3.40;61.10;;;;;;20755449;28;20704;-66
2022/03/02 01:25:19;;;;;;;22.10;11.70;;;3.50;60.90;;;;;;20756257;28;20230;-67
2022/03/02 01:35:21;;;;;;;19.80;11.80;;;3.30;61.20;;;;;;20758228;28;20237;-66
2022/03/02 01:45:23;;;;;;;23.10;12.70;;;3.20;61.10;;;;;;20773164;28;20213;-65
2022/03/02 01:55:25;;;;;;;22.47;12.67;;;3.30;61.10;;;;;;20756768;28;20292;-66
2022/03/02 02:05:27;;;;;;;24.73;12.77;;;3.40;61.70;;;;;;20756099;28;20244;-65
2022/03/02 02:15:29;;;;;;;22.47;13.30;;;3.40;62.30;;;;;;20755854;28;20572;-67
2022/03/02 02:25:31;;;;;;;22.10;11.97;;;3.10;62.30;;;;;;20754780;28;20212;-67
2022/03/02 02:35:33;;;;;;;22.93;12.63;;;3.00;62.40;;;;;;20753846;28;20240;-63
2022/03/02 02:45:35;;;;;;;21.20;11.63;;;3.00;62.80;;;;;;20753363;28;20264;-65
2022/03/02 02:55:38;;;;;;;21.17;11.57;;;2.90;62.80;;;;;;20751855;28;20241;-64
2022/03/02 03:05:40;;;;;;;20.60;12.70;;;2.80;63.10;;;;;;20751947;28;20240;-63
2022/03/02 03:15:43;;;;;;;19.77;12.17;;;2.80;63.30;;;;;;20751156;28;20241;-62
2022/03/02 03:25:45;;;;;;;21.20;12.60;;;2.80;63.40;;;;;;20746636;28;20243;-64
2022/03/02 03:35:47;;;;;;;18.43;11.00;;;2.60;64.20;;;;;;20748531;28;20240;-63
2022/03/02 03:45:49;;;;;;;19.33;10.53;;;2.60;64.60;;;;;;20747790;28;20258;-62
2022/03/02 03:55:51;;;;;;;16.63;10.07;;;2.60;64.90;;;;;;20748267;28;20229;-63
2022/03/02 04:05:52;;;;;;;18.60;11.60;;;2.60;64.80;;;;;;20747643;28;20242;-66
2022/03/02 04:15:54;;;;;;;20.20;10.80;;;2.60;64.40;;;;;;20747465;28;20241;-64
2022/03/02 04:25:56;;;;;;;20.60;10.47;;;2.50;64.90;;;;;;20746822;28;20269;-63
2022/03/02 04:35:58;;;;;;;18.83;10.40;;;2.40;65.30;;;;;;20746567;28;20251;-63
2022/03/02 04:46:00;;;;;;;19.63;10.83;;;2.40;65.70;;;;;;20750198;28;20267;-63
2022/03/02 04:56:02;;;;;;;20.07;11.30;;;2.50;65.80;;;;;;20761176;28;20228;-64
2022/03/02 05:06:04;;;;;;;20.77;10.33;;;2.40;66.00;;;;;;20760423;28;20236;-62
2022/03/02 05:16:05;;;;;;;20.57;11.00;;;2.50;66.00;;;;;;20760197;28;20256;-63
2022/03/02 05:26:07;;;;;;;24.87;10.90;;;2.60;66.00;;;;;;20756591;28;20212;-63
2022/03/02 05:36:09;;;;;;;20.13;11.73;;;2.60;66.10;;;;;;20757850;28;20635;-67
2022/03/02 05:46:11;;;;;;;23.37;11.97;;;2.60;66.20;;;;;;20757604;28;20213;-63
2022/03/02 05:56:12;;;;;;;23.30;11.10;;;2.60;66.60;;;;;;20755203;28;20239;-63
2022/03/02 06:06:14;;;;;;;25.87;11.73;;;2.70;66.70;;;;;;20755645;28;20229;-63
2022/03/02 06:16:16;;;;;;;23.33;12.27;;;2.60;66.80;;;;;;20755102;28;20237;-64
2022/03/02 06:26:18;;;;;;;20.53;10.20;;;2.60;67.70;;;;;;20753700;28;20209;-63
2022/03/02 06:36:20;;;;;;;26.83;11.80;;;2.60;67.40;;;;;;20752545;28;20244;-70
2022/03/02 06:46:40;;;;;;;46.40;12.70;;;2.80;67.70;;;;;;20789403;28;20225;-65
2022/03/02 06:56:50;;;;;;;31.47;12.60;;;2.90;68.10;;;;;;20767577;28;20275;-64
2022/03/02 07:06:52;;;;;;;29.17;13.87;;;3.00;68.10;;;;;;20868797;28;20629;-67
2022/03/02 07:16:59;;;;;;;43.37;12.90;;;3.30;68.40;;;;;;20826740;28;20244;-62
2022/03/02 07:27:01;;;;;;;24.83;13.20;;;3.30;69.00;;;;;;20829576;28;20211;-64
2022/03/02 07:37:03;;;;;;;33.17;13.07;;;3.60;68.30;;;;;;20829563;28;20696;-64
2022/03/02 07:47:05;;;;;;;46.83;13.97;;;3.80;68.20;;;;;;20829819;28;20212;-70
2022/03/02 07:57:09;;;;;;;24.40;12.53;;;4.00;68.80;;;;;;20829582;28;20246;-63
2022/03/02 08:07:11;;;;;;;22.27;12.70;;;4.40;66.90;;;;;;20828814;28;20232;-64
2022/03/02 08:17:15;;;;;;;28.83;12.17;;;4.60;66.10;;;;;;20825965;28;20239;-65
2022/03/02 08:27:19;;;;;;;21.93;12.73;;;4.80;64.70;;;;;;20841895;28;20615;-68
2022/03/02 08:37:22;;;;;;;18.63;11.77;;;4.90;64.20;;;;;;20842787;28;20228;-64
2022/03/02 08:47:24;;;;;;;20.70;11.40;;;5.20;63.10;;;;;;20811502;28;20205;-63
2022/03/02 08:57:26;;;;;;;21.50;10.27;;;5.30;62.00;;;;;;20840648;28;20224;-65
2022/03/02 09:07:28;;;;;;;18.47;10.27;;;5.50;60.40;;;;;;20839785;28;20639;-69
2022/03/02 09:17:30;;;;;;;27.87;10.83;;;5.50;61.00;;;;;;20840298;28;20295;-66
2022/03/02 09:27:34;;;;;;;22.93;10.27;;;5.70;60.10;;;;;;20838352;28;20202;-70
2022/03/02 09:37:41;;;;;;;17.63;10.30;;;5.80;59.00;;;;;;20836214;28;20233;-67
2022/03/02 09:47:45;;;;;;;28.80;14.90;;;5.90;58.60;;;;;;20837777;28;20205;-64
2022/03/02 09:57:50;;;;;;;24.33;13.00;;;5.80;58.40;;;;;;20837559;28;20303;-67
2022/03/02 10:08:00;;;;;;;21.83;12.43;;;6.20;58.20;;;;;;20835908;28;20770;-64
2022/03/02 10:18:05;;;;;;;17.50;11.00;;;6.20;58.50;;;;;;20835331;28;20233;-63
2022/03/02 10:28:07;;;;;;;26.17;11.50;;;6.40;58.30;;;;;;20835273;28;20669;-65
2022/03/02 10:38:15;;;;;;;20.67;11.27;;;6.50;57.50;;;;;;20848752;28;20246;-65
2022/03/02 10:48:42;;;;;;;17.23;10.83;;;6.60;57.60;;;;;;20832093;28;20220;-65
2022/03/02 10:58:48;;;;;;;20.00;11.77;;;6.60;57.60;;;;;;20833249;28;20283;-65
2022/03/02 11:08:50;;;;;;;22.90;11.43;;;6.70;57.60;;;;;;20832322;28;20264;-66
2022/03/02 11:18:53;;;;;;;23.20;11.10;;;6.90;56.70;;;;;;20832072;28;20296;-67
2022/03/02 11:28:58;;;;;;;19.67;11.47;;;7.10;56.20;;;;;;20831241;28;20262;-63
2022/03/02 11:39:01;;;;;;;18.30;11.43;;;7.20;55.90;;;;;;20790292;28;20279;-65
2022/03/02 11:49:04;;;;;;;21.57;12.67;;;7.30;54.70;;;;;;20842172;28;20211;-65
2022/03/02 11:59:08;;;;;;;22.37;11.90;;;7.40;55.30;;;;;;20762861;28;20234;-65
2022/03/02 12:09:30;;;;;;;25.03;11.93;;;7.40;54.10;;;;;;20745556;28;20235;-68
2022/03/02 12:19:33;;;;;;;18.47;11.67;;;7.50;54.70;;;;;;20799998;28;20228;-66
2022/03/02 12:29:37;;;;;;;23.47;11.27;;;8.00;53.90;;;;;;20827092;28;20207;-66
2022/03/02 12:39:40;;;;;;;18.43;11.10;;;8.30;53.60;;;;;;20824759;28;20645;-67
2022/03/02 12:49:43;;;;;;;23.80;12.03;;;8.40;53.70;;;;;;20829883;28;20604;-65
2022/03/02 12:59:45;;;;;;;22.57;13.80;;;8.30;53.30;;;;;;20825817;28;20250;-66
2022/03/02 13:09:50;;;;;;;19.70;11.67;;;8.20;53.10;;;;;;20830346;28;20228;-64
2022/03/02 13:19:57;;;;;;;19.47;11.60;;;8.60;52.30;;;;;;20840797;28;20259;-67
2022/03/02 13:30:07;;;;;;;19.70;11.27;;;8.70;52.70;;;;;;20839014;28;20205;-66
2022/03/02 13:40:09;;;;;;;23.03;11.03;;;9.60;51.50;;;;;;20837994;28;20244;-65
2022/03/02 13:50:12;;;;;;;15.67;11.07;;;9.70;51.30;;;;;;20838623;28;20217;-66
2022/03/02 14:00:24;;;;;;;18.33;11.33;;;9.60;51.70;;;;;;20838324;28;20332;-65
2022/03/02 14:10:26;;;;;;;18.33;11.40;;;9.80;50.70;;;;;;20836864;28;20242;-63
2022/03/02 14:20:34;;;;;;;15.63;11.23;;;10.00;49.00;;;;;;20836083;28;20286;-66
2022/03/02 14:30:41;;;;;;;16.23;10.60;;;10.00;49.30;;;;;;20837078;28;20214;-63
2022/03/02 14:40:44;;;;;;;18.70;10.80;;;11.20;47.40;;;;;;20834972;28;20236;-65
2022/03/02 14:50:51;;;;;;;17.93;10.63;;;11.90;46.70;;;;;;20834110;28;20234;-65
2022/03/02 15:01:20;;;;;;;18.00;9.50;;;13.90;44.20;;;;;;20819244;28;20292;-64
2022/03/02 15:11:25;;;;;;;16.73;10.03;;;15.60;42.50;;;;;;20746615;28;20569;-67
2022/03/02 15:21:27;;;;;;;18.60;10.67;;;17.60;39.70;;;;;;20749901;28;20238;-68
2022/03/02 15:31:29;;;;;;;13.07;9.93;;;20.30;36.40;;;;;;20748808;28;20271;-68
2022/03/02 15:41:31;;;;;;;16.20;10.03;;;17.10;35.90;;;;;;20748478;28;20244;-69
2022/03/02 15:51:33;;;;;;;13.80;9.53;;;18.40;34.00;;;;;;20747639;28;20207;-70
2022/03/02 16:01:35;;;;;;;16.93;10.10;;;14.90;34.40;;;;;;20762059;28;20241;-66
2022/03/02 16:11:47;;;;;;;15.70;10.40;;;12.90;35.30;;;;;;20783632;28;20239;-68
2022/03/02 16:21:51;;;;;;;14.40;9.83;;;11.80;36.40;;;;;;20827569;28;20238;-67
2022/03/02 16:31:53;;;;;;;19.60;11.40;;;10.50;38.60;;;;;;20827530;28;20741;-68
2022/03/02 16:41:54;;;;;;;22.50;13.67;;;10.50;39.30;;;;;;20833851;28;20237;-69
2022/03/02 16:51:57;;;;;;;22.50;14.30;;;10.00;40.80;;;;;;20843349;28;20300;-67
2022/03/02 17:01:59;;;;;;;21.93;12.33;;;9.20;43.40;;;;;;20825933;28;20295;-68
2022/03/02 17:12:01;;;;;;;24.77;13.00;;;9.00;43.60;;;;;;20758347;28;20216;-73
2022/03/02 17:22:03;;;;;;;27.50;11.33;;;8.70;44.10;;;;;;20758488;28;20234;-65
2022/03/02 17:32:06;;;;;;;17.20;10.03;;;8.10;44.60;;;;;;20756443;28;20216;-67
2022/03/02 17:42:09;;;;;;;19.40;11.70;;;7.90;45.20;;;;;;20755545;28;20236;-64
2022/03/02 17:52:10;;;;;;;29.03;15.27;;;7.80;46.10;;;;;;20754504;28;20209;-66
2022/03/02 18:02:14;;;;;;;24.53;14.40;;;7.10;47.30;;;;;;20754852;28;20250;-64
2022/03/02 18:12:16;;;;;;;24.13;13.97;;;7.10;47.60;;;;;;20803915;28;20540;-70
2022/03/02 18:22:18;;;;;;;26.30;13.87;;;6.70;48.40;;;;;;20834585;28;20238;-68
2022/03/02 18:32:21;;;;;;;34.47;15.77;;;6.40;49.90;;;;;;20836214;28;20255;-67
2022/03/02 18:42:23;;;;;;;32.33;16.63;;;6.30;50.30;;;;;;20830808;28;20677;-65
2022/03/02 18:52:25;;;;;;;32.20;17.17;;;6.10;51.30;;;;;;20750376;28;20210;-63
2022/03/02 19:02:27;;;;;;;28.63;16.07;;;5.50;52.00;;;;;;20749960;28;20237;-70
2022/03/02 19:12:29;;;;;;;24.10;15.10;;;5.30;52.50;;;;;;20751683;28;20248;-71
2022/03/02 19:22:40;;;;;;;31.53;17.60;;;5.20;52.90;;;;;;20750450;28;20233;-71
2022/03/02 19:32:43;;;;;;;27.27;16.20;;;4.90;53.50;;;;;;20749938;28;20208;-66
2022/03/02 19:42:45;;;;;;;33.00;16.63;;;4.90;53.70;;;;;;20747908;28;20232;-65
2022/03/02 19:52:50;;;;;;;28.77;16.03;;;4.80;54.40;;;;;;20748231;28;20205;-67
2022/03/02 20:02:52;;;;;;;32.83;18.90;;;4.50;55.10;;;;;;20747783;28;20241;-70
2022/03/02 20:12:54;;;;;;;32.30;18.33;;;4.30;55.70;;;;;;20784540;28;20217;-67
2022/03/02 20:23:16;;;;;;;29.90;17.93;;;4.20;55.80;;;;;;20873344;28;20650;-70
2022/03/02 20:33:20;;;;;;;33.90;17.57;;;4.00;56.80;;;;;;20853866;28;20656;-69
2022/03/02 20:43:23;;;;;;;30.30;17.57;;;3.90;57.20;;;;;;20818931;28;20758;-66
2022/03/02 20:53:25;;;;;;;36.57;17.00;;;3.90;57.30;;;;;;20804875;28;20606;-67
2022/03/02 21:03:28;;;;;;;28.83;16.17;;;3.60;57.80;;;;;;20824766;28;20294;-68
2022/03/02 21:13:31;;;;;;;36.13;16.40;;;3.60;58.20;;;;;;20824608;28;20620;-68
2022/03/02 21:23:33;;;;;;;29.67;15.43;;;3.50;58.50;;;;;;20824119;28;20331;-69
2022/03/02 21:33:34;;;;;;;25.50;14.70;;;3.30;58.40;;;;;;20835656;28;20600;-69
2022/03/02 21:43:36;;;;;;;22.90;14.17;;;3.20;58.80;;;;;;20838170;28;20338;-66
2022/03/02 21:53:38;;;;;;;31.53;15.83;;;3.20;59.20;;;;;;20837015;28;20695;-66
2022/03/02 22:03:40;;;;;;;25.90;14.67;;;3.10;59.50;;;;;;20835928;28;20244;-70
2022/03/02 22:13:42;;;;;;;26.20;14.13;;;3.10;59.50;;;;;;20835899;28;20273;-66
2022/03/02 22:23:44;;;;;;;23.57;14.13;;;2.90;59.60;;;;;;20834585;28;20293;-65
2022/03/02 22:33:45;;;;;;;29.03;16.40;;;2.80;59.80;;;;;;20832521;28;20653;-67
2022/03/02 22:43:47;;;;;;;32.23;14.50;;;2.50;60.60;;;;;;20829495;28;20243;-66
2022/03/02 22:53:49;;;;;;;29.37;14.63;;;2.60;60.70;;;;;;20748078;28;20223;-71
2022/03/02 23:03:51;;;;;;;27.23;14.87;;;2.50;60.60;;;;;;20749499;28;20288;-67
2022/03/02 23:14:01;;;;;;;29.53;14.47;;;2.50;60.90;;;;;;20749372;28;20564;-68
2022/03/02 23:24:03;;;;;;;24.63;14.17;;;2.60;61.00;;;;;;20751263;28;20215;-68
2022/03/02 23:34:08;;;;;;;26.00;14.67;;;2.40;60.90;;;;;;20747257;28;20207;-67
2022/03/02 23:44:10;;;;;;;26.00;14.33;;;2.20;62.00;;;;;;20749483;28;20220;-66
2022/03/02 23:54:13;;;;;;;31.30;14.63;;;2.20;62.60;;;;;;20747261;28;20215;-67
